sensor_id;sensor_type;location;lat;lon;timestamp;P1;durP1;ratioP1;P2;durP2;ratioP2
3567;SDS011;1798;48.486;9.232;2022-11-15T00:02:20;13.00;;;4.20;;
3567;SDS011;1798;48.486;9.232;2022-11-15T00:04:46;9.50;;;3.90;;
3567;SDS011;1798;48.486;9.232;2022-11-15T00:07:14;13.83;;;4.40;;
3567;SDS011;1798;48.486;9.232;2022-11-15T00:09:41;8.77;;;4.17;;
3567;SDS011;1798;48.486;9.232;2022-11-15T00:12:08;6.67;;;4.40;;
3567;SDS011;1798;48.486;9.232;2022-11-15T00:14:35;7.20;;;3.90;;
3567;SDS011;1798;48.486;9.232;2022-11-15T00:17:02;9.30;;;4.47;;
3567;SDS011;1798;48.486;9.232;2022-11-15T00:19:29;10.37;;;4.20;;
3567;SDS011;1798;48.486;9.232;2022-11-15T00:21:55;10.73;;;4.23;;
3567;SDS011;1798;48.486;9.232;2022-11-15T00:24:23;7.00;;;4.00;;
3567;SDS011;1798;48.486;9.232;2022-11-15T00:26:50;13.00;;;4.70;;
3567;SDS011;1798;48.486;9.232;2022-11-15T00:29:17;6.47;;;4.07;;
3567;SDS011;1798;48.486;9.232;2022-11-15T00:31:43;6.03;;;3.53;;
3567;SDS011;1798;48.486;9.232;2022-11-15T00:34:10;11.97;;;4.47;;
3567;SDS011;1798;48.486;9.232;2022-11-15T00:36:37;10.00;;;4.80;;
3567;SDS011;1798;48.486;9.232;2022-11-15T00:39:04;10.30;;;4.27;;
3567;SDS011;1798;48.486;9.232;2022-11-15T00:41:32;7.00;;;4.07;;
3567;SDS011;1798;48.486;9.232;2022-11-15T00:43:59;10.70;;;3.90;;
3567;SDS011;1798;48.486;9.232;2022-11-15T00:46:26;9.00;;;4.13;;
3567;SDS011;1798;48.486;9.232;2022-11-15T00:48:52;13.03;;;4.10;;
3567;SDS011;1798;48.486;9.232;2022-11-15T00:51:19;10.00;;;3.50;;
3567;SDS011;1798;48.486;9.232;2022-11-15T00:53:46;7.17;;;3.77;;
3567;SDS011;1798;48.486;9.232;2022-11-15T00:56:12;14.23;;;4.67;;
3567;SDS011;1798;48.486;9.232;2022-11-15T00:58:40;4.93;;;3.20;;
3567;SDS011;1798;48.486;9.232;2022-11-15T01:01:08;9.93;;;3.70;;
3567;SDS011;1798;48.486;9.232;2022-11-15T01:03:36;7.77;;;4.00;;
3567;SDS011;1798;48.486;9.232;2022-11-15T01:06:04;9.00;;;4.17;;
3567;SDS011;1798;48.486;9.232;2022-11-15T01:08:31;6.70;;;3.93;;
3567;SDS011;1798;48.486;9.232;2022-11-15T01:11:00;9.97;;;4.30;;
3567;SDS011;1798;48.486;9.232;2022-11-15T01:13:29;9.83;;;4.90;;
3567;SDS011;1798;48.486;9.232;2022-11-15T01:15:58;7.37;;;4.27;;
3567;SDS011;1798;48.486;9.232;2022-11-15T01:18:24;12.50;;;5.73;;
3567;SDS011;1798;48.486;9.232;2022-11-15T01:20:51;6.67;;;3.87;;
3567;SDS011;1798;48.486;9.232;2022-11-15T01:23:18;15.50;;;4.37;;
3567;SDS011;1798;48.486;9.232;2022-11-15T01:25:44;10.47;;;4.67;;
3567;SDS011;1798;48.486;9.232;2022-11-15T01:28:11;6.70;;;3.60;;
3567;SDS011;1798;48.486;9.232;2022-11-15T01:30:38;8.60;;;3.13;;
3567;SDS011;1798;48.486;9.232;2022-11-15T01:33:06;9.23;;;3.93;;
3567;SDS011;1798;48.486;9.232;2022-11-15T01:35:33;14.10;;;4.03;;
3567;SDS011;1798;48.486;9.232;2022-11-15T01:38:00;7.40;;;3.70;;
3567;SDS011;1798;48.486;9.232;2022-11-15T01:40:26;11.03;;;4.10;;
3567;SDS011;1798;48.486;9.232;2022-11-15T01:42:53;9.20;;;3.47;;
3567;SDS011;1798;48.486;9.232;2022-11-15T01:45:20;9.77;;;4.50;;
3567;SDS011;1798;48.486;9.232;2022-11-15T01:47:47;31.03;;;4.13;;
3567;SDS011;1798;48.486;9.232;2022-11-15T01:50:17;6.60;;;3.63;;
3567;SDS011;1798;48.486;9.232;2022-11-15T01:52:46;6.70;;;3.87;;
3567;SDS011;1798;48.486;9.232;2022-11-15T01:55:13;5.37;;;3.60;;
3567;SDS011;1798;48.486;9.232;2022-11-15T01:57:42;5.17;;;3.30;;
3567;SDS011;1798;48.486;9.232;2022-11-15T02:00:10;9.00;;;4.40;;
3567;SDS011;1798;48.486;9.232;2022-11-15T02:02:38;9.40;;;3.97;;
3567;SDS011;1798;48.486;9.232;2022-11-15T02:05:05;18.20;;;4.27;;
3567;SDS011;1798;48.486;9.232;2022-11-15T02:07:34;9.30;;;3.43;;
3567;SDS011;1798;48.486;9.232;2022-11-15T02:10:02;10.17;;;4.10;;
3567;SDS011;1798;48.486;9.232;2022-11-15T02:12:32;7.03;;;4.23;;
3567;SDS011;1798;48.486;9.232;2022-11-15T02:14:59;9.20;;;3.97;;
3567;SDS011;1798;48.486;9.232;2022-11-15T02:17:40;7.73;;;4.57;;
3567;SDS011;1798;48.486;9.232;2022-11-15T02:20:20;6.30;;;3.10;;
3567;SDS011;1798;48.486;9.232;2022-11-15T02:23:03;9.50;;;3.70;;
3567;SDS011;1798;48.486;9.232;2022-11-15T02:25:38;23.33;;;5.00;;
3567;SDS011;1798;48.486;9.232;2022-11-15T02:28:22;7.60;;;3.90;;
3567;SDS011;1798;48.486;9.232;2022-11-15T02:31:09;9.77;;;3.83;;
3567;SDS011;1798;48.486;9.232;2022-11-15T02:33:39;7.10;;;4.30;;
3567;SDS011;1798;48.486;9.232;2022-11-15T02:36:10;5.80;;;2.97;;
3567;SDS011;1798;48.486;9.232;2022-11-15T02:38:40;9.40;;;4.03;;
3567;SDS011;1798;48.486;9.232;2022-11-15T02:41:13;17.43;;;4.40;;
3567;SDS011;1798;48.486;9.232;2022-11-15T02:43:43;7.40;;;3.67;;
3567;SDS011;1798;48.486;9.232;2022-11-15T02:46:23;6.70;;;3.73;;
3567;SDS011;1798;48.486;9.232;2022-11-15T02:49:08;17.77;;;3.87;;
3567;SDS011;1798;48.486;9.232;2022-11-15T02:51:36;5.63;;;3.73;;
3567;SDS011;1798;48.486;9.232;2022-11-15T02:54:03;10.00;;;3.73;;
3567;SDS011;1798;48.486;9.232;2022-11-15T02:56:30;11.03;;;3.10;;
3567;SDS011;1798;48.486;9.232;2022-11-15T02:59:00;5.30;;;3.70;;
3567;SDS011;1798;48.486;9.232;2022-11-15T03:01:39;11.47;;;4.13;;
3567;SDS011;1798;48.486;9.232;2022-11-15T03:04:15;5.67;;;3.47;;
3567;SDS011;1798;48.486;9.232;2022-11-15T03:06:49;6.63;;;3.50;;
3567;SDS011;1798;48.486;9.232;2022-11-15T03:09:21;9.47;;;4.20;;
3567;SDS011;1798;48.486;9.232;2022-11-15T03:11:55;8.57;;;3.30;;
3567;SDS011;1798;48.486;9.232;2022-11-15T03:14:24;5.50;;;3.37;;
3567;SDS011;1798;48.486;9.232;2022-11-15T03:16:56;11.50;;;4.37;;
3567;SDS011;1798;48.486;9.232;2022-11-15T03:19:26;11.30;;;4.17;;
3567;SDS011;1798;48.486;9.232;2022-11-15T03:21:57;5.90;;;3.37;;
3567;SDS011;1798;48.486;9.232;2022-11-15T03:24:25;5.87;;;3.90;;
3567;SDS011;1798;48.486;9.232;2022-11-15T03:26:53;6.20;;;3.80;;
3567;SDS011;1798;48.486;9.232;2022-11-15T03:29:22;6.63;;;3.40;;
3567;SDS011;1798;48.486;9.232;2022-11-15T03:31:51;11.47;;;3.60;;
3567;SDS011;1798;48.486;9.232;2022-11-15T03:34:24;21.13;;;4.20;;
3567;SDS011;1798;48.486;9.232;2022-11-15T03:36:52;9.80;;;3.50;;
3567;SDS011;1798;48.486;9.232;2022-11-15T03:39:19;5.53;;;3.20;;
3567;SDS011;1798;48.486;9.232;2022-11-15T03:41:48;18.03;;;3.73;;
3567;SDS011;1798;48.486;9.232;2022-11-15T03:44:19;17.03;;;5.33;;
3567;SDS011;1798;48.486;9.232;2022-11-15T03:46:51;5.20;;;3.07;;
3567;SDS011;1798;48.486;9.232;2022-11-15T03:49:27;6.77;;;4.40;;
3567;SDS011;1798;48.486;9.232;2022-11-15T03:51:56;6.17;;;3.37;;
3567;SDS011;1798;48.486;9.232;2022-11-15T03:54:23;4.50;;;3.10;;
3567;SDS011;1798;48.486;9.232;2022-11-15T03:56:50;21.70;;;4.10;;
3567;SDS011;1798;48.486;9.232;2022-11-15T03:59:17;5.47;;;3.20;;
3567;SDS011;1798;48.486;9.232;2022-11-15T04:01:43;23.60;;;4.00;;
3567;SDS011;1798;48.486;9.232;2022-11-15T04:04:12;9.50;;;3.53;;
3567;SDS011;1798;48.486;9.232;2022-11-15T04:06:38;18.83;;;4.40;;
3567;SDS011;1798;48.486;9.232;2022-11-15T04:09:05;5.97;;;3.70;;
3567;SDS011;1798;48.486;9.232;2022-11-15T04:11:32;6.90;;;4.00;;
3567;SDS011;1798;48.486;9.232;2022-11-15T04:13:59;5.90;;;3.60;;
3567;SDS011;1798;48.486;9.232;2022-11-15T04:16:25;6.27;;;4.13;;
3567;SDS011;1798;48.486;9.232;2022-11-15T04:18:52;7.40;;;3.57;;
3567;SDS011;1798;48.486;9.232;2022-11-15T04:21:34;9.63;;;4.20;;
3567;SDS011;1798;48.486;9.232;2022-11-15T04:24:18;5.57;;;3.20;;
3567;SDS011;1798;48.486;9.232;2022-11-15T04:26:45;11.23;;;3.70;;
3567;SDS011;1798;48.486;9.232;2022-11-15T04:29:12;9.43;;;3.67;;
3567;SDS011;1798;48.486;9.232;2022-11-15T04:31:56;8.33;;;4.17;;
3567;SDS011;1798;48.486;9.232;2022-11-15T04:34:22;8.30;;;3.60;;
3567;SDS011;1798;48.486;9.232;2022-11-15T04:36:51;6.57;;;3.47;;
3567;SDS011;1798;48.486;9.232;2022-11-15T04:39:35;6.80;;;3.90;;
3567;SDS011;1798;48.486;9.232;2022-11-15T04:42:02;7.27;;;3.97;;
3567;SDS011;1798;48.486;9.232;2022-11-15T04:44:29;5.60;;;3.47;;
3567;SDS011;1798;48.486;9.232;2022-11-15T04:46:56;6.27;;;3.70;;
3567;SDS011;1798;48.486;9.232;2022-11-15T04:49:22;6.10;;;3.60;;
3567;SDS011;1798;48.486;9.232;2022-11-15T04:51:51;10.30;;;3.40;;
3567;SDS011;1798;48.486;9.232;2022-11-15T04:54:18;7.30;;;4.53;;
3567;SDS011;1798;48.486;9.232;2022-11-15T04:56:45;7.60;;;3.73;;
3567;SDS011;1798;48.486;9.232;2022-11-15T04:59:11;6.83;;;3.33;;
3567;SDS011;1798;48.486;9.232;2022-11-15T05:01:38;7.37;;;3.47;;
3567;SDS011;1798;48.486;9.232;2022-11-15T05:04:05;6.97;;;3.90;;
3567;SDS011;1798;48.486;9.232;2022-11-15T05:06:46;12.13;;;4.50;;
3567;SDS011;1798;48.486;9.232;2022-11-15T05:09:15;10.20;;;4.50;;
3567;SDS011;1798;48.486;9.232;2022-11-15T05:11:42;8.13;;;4.00;;
3567;SDS011;1798;48.486;9.232;2022-11-15T05:14:08;8.83;;;4.03;;
3567;SDS011;1798;48.486;9.232;2022-11-15T05:16:35;7.63;;;3.40;;
3567;SDS011;1798;48.486;9.232;2022-11-15T05:19:02;9.77;;;3.63;;
3567;SDS011;1798;48.486;9.232;2022-11-15T05:21:30;11.57;;;4.60;;
3567;SDS011;1798;48.486;9.232;2022-11-15T05:23:56;11.00;;;4.37;;
3567;SDS011;1798;48.486;9.232;2022-11-15T05:26:25;8.00;;;4.00;;
3567;SDS011;1798;48.486;9.232;2022-11-15T05:28:52;7.10;;;3.63;;
3567;SDS011;1798;48.486;9.232;2022-11-15T05:31:20;6.03;;;3.53;;
3567;SDS011;1798;48.486;9.232;2022-11-15T05:33:46;11.73;;;4.20;;
3567;SDS011;1798;48.486;9.232;2022-11-15T05:36:17;13.13;;;3.70;;
3567;SDS011;1798;48.486;9.232;2022-11-15T05:38:45;8.40;;;4.20;;
3567;SDS011;1798;48.486;9.232;2022-11-15T05:41:12;5.77;;;3.33;;
3567;SDS011;1798;48.486;9.232;2022-11-15T05:43:41;11.07;;;4.53;;
3567;SDS011;1798;48.486;9.232;2022-11-15T05:46:08;4.90;;;3.40;;
3567;SDS011;1798;48.486;9.232;2022-11-15T05:48:34;9.40;;;2.90;;
3567;SDS011;1798;48.486;9.232;2022-11-15T05:51:03;6.00;;;3.70;;
3567;SDS011;1798;48.486;9.232;2022-11-15T05:53:31;7.00;;;3.90;;
3567;SDS011;1798;48.486;9.232;2022-11-15T05:55:58;6.87;;;4.20;;
3567;SDS011;1798;48.486;9.232;2022-11-15T05:58:25;8.67;;;4.40;;
3567;SDS011;1798;48.486;9.232;2022-11-15T06:00:53;8.80;;;4.00;;
3567;SDS011;1798;48.486;9.232;2022-11-15T06:03:20;14.60;;;4.20;;
3567;SDS011;1798;48.486;9.232;2022-11-15T06:05:47;6.70;;;4.00;;
3567;SDS011;1798;48.486;9.232;2022-11-15T06:08:13;8.90;;;4.60;;
3567;SDS011;1798;48.486;9.232;2022-11-15T06:10:40;7.93;;;4.00;;
3567;SDS011;1798;48.486;9.232;2022-11-15T06:13:07;5.10;;;3.30;;
3567;SDS011;1798;48.486;9.232;2022-11-15T06:15:35;7.90;;;4.80;;
3567;SDS011;1798;48.486;9.232;2022-11-15T06:18:03;6.90;;;3.87;;
3567;SDS011;1798;48.486;9.232;2022-11-15T06:20:30;8.43;;;3.97;;
3567;SDS011;1798;48.486;9.232;2022-11-15T06:22:57;18.63;;;3.97;;
3567;SDS011;1798;48.486;9.232;2022-11-15T06:25:24;8.27;;;3.80;;
3567;SDS011;1798;48.486;9.232;2022-11-15T06:27:51;7.43;;;3.83;;
3567;SDS011;1798;48.486;9.232;2022-11-15T06:30:18;8.20;;;4.17;;
3567;SDS011;1798;48.486;9.232;2022-11-15T06:32:45;6.23;;;4.30;;
3567;SDS011;1798;48.486;9.232;2022-11-15T06:35:13;6.13;;;3.40;;
3567;SDS011;1798;48.486;9.232;2022-11-15T06:37:40;8.03;;;4.10;;
3567;SDS011;1798;48.486;9.232;2022-11-15T06:40:08;17.53;;;3.80;;
3567;SDS011;1798;48.486;9.232;2022-11-15T06:42:36;7.47;;;3.67;;
3567;SDS011;1798;48.486;9.232;2022-11-15T06:45:03;9.10;;;3.83;;
3567;SDS011;1798;48.486;9.232;2022-11-15T06:47:31;5.70;;;3.53;;
3567;SDS011;1798;48.486;9.232;2022-11-15T06:49:57;6.30;;;3.40;;
3567;SDS011;1798;48.486;9.232;2022-11-15T06:52:26;13.47;;;4.47;;
3567;SDS011;1798;48.486;9.232;2022-11-15T06:54:57;7.10;;;4.37;;
3567;SDS011;1798;48.486;9.232;2022-11-15T06:57:24;6.23;;;3.57;;
3567;SDS011;1798;48.486;9.232;2022-11-15T06:59:51;5.63;;;3.93;;
3567;SDS011;1798;48.486;9.232;2022-11-15T07:02:17;18.10;;;5.57;;
3567;SDS011;1798;48.486;9.232;2022-11-15T07:04:44;16.60;;;5.23;;
3567;SDS011;1798;48.486;9.232;2022-11-15T07:07:11;13.87;;;4.70;;
3567;SDS011;1798;48.486;9.232;2022-11-15T07:09:39;32.93;;;4.93;;
3567;SDS011;1798;48.486;9.232;2022-11-15T07:12:06;8.20;;;4.70;;
3567;SDS011;1798;48.486;9.232;2022-11-15T07:14:33;15.90;;;6.20;;
3567;SDS011;1798;48.486;9.232;2022-11-15T07:17:00;6.60;;;4.70;;
3567;SDS011;1798;48.486;9.232;2022-11-15T07:19:30;7.80;;;4.13;;
3567;SDS011;1798;48.486;9.232;2022-11-15T07:21:56;12.70;;;5.37;;
3567;SDS011;1798;48.486;9.232;2022-11-15T07:24:23;11.17;;;4.60;;
3567;SDS011;1798;48.486;9.232;2022-11-15T07:26:51;19.53;;;6.03;;
3567;SDS011;1798;48.486;9.232;2022-11-15T07:29:18;10.00;;;4.50;;
3567;SDS011;1798;48.486;9.232;2022-11-15T07:31:45;12.90;;;4.43;;
3567;SDS011;1798;48.486;9.232;2022-11-15T07:34:11;9.47;;;5.27;;
3567;SDS011;1798;48.486;9.232;2022-11-15T07:36:38;6.13;;;4.43;;
3567;SDS011;1798;48.486;9.232;2022-11-15T07:39:05;8.03;;;3.93;;
3567;SDS011;1798;48.486;9.232;2022-11-15T07:41:31;9.67;;;4.50;;
3567;SDS011;1798;48.486;9.232;2022-11-15T07:44:00;10.40;;;4.80;;
3567;SDS011;1798;48.486;9.232;2022-11-15T07:46:26;7.80;;;4.70;;
3567;SDS011;1798;48.486;9.232;2022-11-15T07:48:53;15.03;;;4.63;;
3567;SDS011;1798;48.486;9.232;2022-11-15T07:51:20;6.47;;;4.47;;
3567;SDS011;1798;48.486;9.232;2022-11-15T07:53:46;11.20;;;5.27;;
3567;SDS011;1798;48.486;9.232;2022-11-15T07:56:13;6.10;;;4.23;;
3567;SDS011;1798;48.486;9.232;2022-11-15T07:58:40;17.93;;;4.20;;
3567;SDS011;1798;48.486;9.232;2022-11-15T08:01:09;7.83;;;5.20;;
3567;SDS011;1798;48.486;9.232;2022-11-15T08:03:36;7.77;;;4.17;;
3567;SDS011;1798;48.486;9.232;2022-11-15T08:06:03;7.00;;;3.70;;
3567;SDS011;1798;48.486;9.232;2022-11-15T08:08:30;8.07;;;3.73;;
3567;SDS011;1798;48.486;9.232;2022-11-15T08:10:57;8.53;;;4.80;;
3567;SDS011;1798;48.486;9.232;2022-11-15T08:13:24;6.47;;;4.43;;
3567;SDS011;1798;48.486;9.232;2022-11-15T08:15:50;8.30;;;4.40;;
3567;SDS011;1798;48.486;9.232;2022-11-15T08:18:19;11.53;;;5.73;;
3567;SDS011;1798;48.486;9.232;2022-11-15T08:20:45;9.80;;;4.73;;
3567;SDS011;1798;48.486;9.232;2022-11-15T08:23:12;16.03;;;4.43;;
3567;SDS011;1798;48.486;9.232;2022-11-15T08:25:39;20.13;;;5.70;;
3567;SDS011;1798;48.486;9.232;2022-11-15T08:28:06;6.40;;;4.00;;
3567;SDS011;1798;48.486;9.232;2022-11-15T08:30:34;11.33;;;4.53;;
3567;SDS011;1798;48.486;9.232;2022-11-15T08:33:02;44.30;;;5.83;;
3567;SDS011;1798;48.486;9.232;2022-11-15T08:35:31;15.30;;;5.70;;
3567;SDS011;1798;48.486;9.232;2022-11-15T08:37:57;14.10;;;5.40;;
3567;SDS011;1798;48.486;9.232;2022-11-15T08:40:24;19.60;;;5.90;;
3567;SDS011;1798;48.486;9.232;2022-11-15T08:42:52;13.87;;;5.73;;
3567;SDS011;1798;48.486;9.232;2022-11-15T08:45:18;7.70;;;4.50;;
3567;SDS011;1798;48.486;9.232;2022-11-15T08:47:45;12.00;;;6.60;;
3567;SDS011;1798;48.486;9.232;2022-11-15T08:50:12;8.50;;;5.10;;
3567;SDS011;1798;48.486;9.232;2022-11-15T08:52:40;17.80;;;5.53;;
3567;SDS011;1798;48.486;9.232;2022-11-15T08:55:07;15.10;;;5.60;;
3567;SDS011;1798;48.486;9.232;2022-11-15T08:57:34;9.60;;;4.70;;
3567;SDS011;1798;48.486;9.232;2022-11-15T09:00:01;7.13;;;3.90;;
3567;SDS011;1798;48.486;9.232;2022-11-15T09:02:28;14.57;;;6.37;;
3567;SDS011;1798;48.486;9.232;2022-11-15T09:04:55;9.17;;;4.23;;
3567;SDS011;1798;48.486;9.232;2022-11-15T09:07:22;17.83;;;4.80;;
3567;SDS011;1798;48.486;9.232;2022-11-15T09:09:50;6.60;;;3.50;;
3567;SDS011;1798;48.486;9.232;2022-11-15T09:12:18;5.63;;;4.17;;
3567;SDS011;1798;48.486;9.232;2022-11-15T09:14:49;22.23;;;5.10;;
3567;SDS011;1798;48.486;9.232;2022-11-15T09:17:16;12.70;;;4.60;;
3567;SDS011;1798;48.486;9.232;2022-11-15T09:19:43;7.90;;;4.70;;
3567;SDS011;1798;48.486;9.232;2022-11-15T09:22:09;10.10;;;5.10;;
3567;SDS011;1798;48.486;9.232;2022-11-15T09:24:36;7.40;;;3.73;;
3567;SDS011;1798;48.486;9.232;2022-11-15T09:27:05;16.40;;;4.80;;
3567;SDS011;1798;48.486;9.232;2022-11-15T09:29:31;6.03;;;3.80;;
3567;SDS011;1798;48.486;9.232;2022-11-15T09:31:58;6.17;;;3.87;;
3567;SDS011;1798;48.486;9.232;2022-11-15T09:34:25;16.40;;;4.77;;
3567;SDS011;1798;48.486;9.232;2022-11-15T09:36:52;9.93;;;4.90;;
3567;SDS011;1798;48.486;9.232;2022-11-15T09:39:19;12.73;;;4.40;;
3567;SDS011;1798;48.486;9.232;2022-11-15T09:41:51;11.67;;;5.50;;
3567;SDS011;1798;48.486;9.232;2022-11-15T09:47:21;12.07;;;5.73;;
3567;SDS011;1798;48.486;9.232;2022-11-15T09:49:56;8.00;;;4.30;;
3567;SDS011;1798;48.486;9.232;2022-11-15T09:52:25;17.07;;;6.97;;
3567;SDS011;1798;48.486;9.232;2022-11-15T09:54:52;9.77;;;5.10;;
3567;SDS011;1798;48.486;9.232;2022-11-15T09:57:20;7.47;;;4.57;;
3567;SDS011;1798;48.486;9.232;2022-11-15T09:59:54;8.83;;;4.93;;
3567;SDS011;1798;48.486;9.232;2022-11-15T10:02:38;14.90;;;8.60;;
3567;SDS011;1798;48.486;9.232;2022-11-15T10:05:12;11.60;;;5.80;;
3567;SDS011;1798;48.486;9.232;2022-11-15T10:07:48;18.60;;;8.27;;
3567;SDS011;1798;48.486;9.232;2022-11-15T10:10:22;10.20;;;5.03;;
3567;SDS011;1798;48.486;9.232;2022-11-15T10:12:52;7.80;;;4.73;;
3567;SDS011;1798;48.486;9.232;2022-11-15T10:15:20;11.53;;;6.27;;
3567;SDS011;1798;48.486;9.232;2022-11-15T10:17:57;15.43;;;9.10;;
3567;SDS011;1798;48.486;9.232;2022-11-15T10:20:31;8.90;;;5.23;;
3567;SDS011;1798;48.486;9.232;2022-11-15T10:23:02;8.33;;;4.67;;
3567;SDS011;1798;48.486;9.232;2022-11-15T10:25:32;11.70;;;6.83;;
3567;SDS011;1798;48.486;9.232;2022-11-15T10:28:00;6.23;;;4.00;;
3567;SDS011;1798;48.486;9.232;2022-11-15T10:30:34;21.83;;;6.03;;
3567;SDS011;1798;48.486;9.232;2022-11-15T10:38:57;12.00;;;5.83;;
3567;SDS011;1798;48.486;9.232;2022-11-15T10:41:32;10.00;;;5.13;;
3567;SDS011;1798;48.486;9.232;2022-11-15T10:44:03;7.43;;;4.70;;
3567;SDS011;1798;48.486;9.232;2022-11-15T10:46:45;21.63;;;9.50;;
3567;SDS011;1798;48.486;9.232;2022-11-15T10:49:14;7.53;;;4.73;;
3567;SDS011;1798;48.486;9.232;2022-11-15T10:51:44;11.13;;;5.20;;
3567;SDS011;1798;48.486;9.232;2022-11-15T10:54:13;8.60;;;4.67;;
3567;SDS011;1798;48.486;9.232;2022-11-15T10:56:43;15.00;;;7.60;;
3567;SDS011;1798;48.486;9.232;2022-11-15T10:59:16;8.30;;;4.93;;
3567;SDS011;1798;48.486;9.232;2022-11-15T11:01:54;25.63;;;7.93;;
3567;SDS011;1798;48.486;9.232;2022-11-15T11:04:21;8.70;;;5.67;;
3567;SDS011;1798;48.486;9.232;2022-11-15T11:06:49;13.10;;;5.70;;
3567;SDS011;1798;48.486;9.232;2022-11-15T11:09:21;15.73;;;5.53;;
3567;SDS011;1798;48.486;9.232;2022-11-15T11:11:51;8.70;;;4.43;;
3567;SDS011;1798;48.486;9.232;2022-11-15T11:14:20;18.30;;;5.97;;
3567;SDS011;1798;48.486;9.232;2022-11-15T11:16:49;14.20;;;5.47;;
3567;SDS011;1798;48.486;9.232;2022-11-15T11:22:06;15.53;;;7.47;;
3567;SDS011;1798;48.486;9.232;2022-11-15T11:24:41;7.03;;;5.17;;
3567;SDS011;1798;48.486;9.232;2022-11-15T11:27:17;12.73;;;6.50;;
3567;SDS011;1798;48.486;9.232;2022-11-15T11:32:46;15.10;;;7.10;;
3567;SDS011;1798;48.486;9.232;2022-11-15T11:35:19;10.10;;;5.03;;
3567;SDS011;1798;48.486;9.232;2022-11-15T11:37:49;19.03;;;7.30;;
3567;SDS011;1798;48.486;9.232;2022-11-15T11:40:24;7.87;;;4.13;;
3567;SDS011;1798;48.486;9.232;2022-11-15T11:42:56;7.67;;;4.57;;
3567;SDS011;1798;48.486;9.232;2022-11-15T11:45:36;9.23;;;6.37;;
3567;SDS011;1798;48.486;9.232;2022-11-15T11:48:21;8.83;;;4.80;;
3567;SDS011;1798;48.486;9.232;2022-11-15T11:50:53;33.73;;;10.30;;
3567;SDS011;1798;48.486;9.232;2022-11-15T11:53:27;9.00;;;5.23;;
3567;SDS011;1798;48.486;9.232;2022-11-15T11:55:56;9.30;;;5.53;;
3567;SDS011;1798;48.486;9.232;2022-11-15T11:58:28;11.10;;;5.10;;
3567;SDS011;1798;48.486;9.232;2022-11-15T12:01:03;8.87;;;4.40;;
3567;SDS011;1798;48.486;9.232;2022-11-15T12:03:38;18.00;;;8.93;;
3567;SDS011;1798;48.486;9.232;2022-11-15T12:06:20;6.83;;;4.50;;
3567;SDS011;1798;48.486;9.232;2022-11-15T12:08:50;8.77;;;5.00;;
3567;SDS011;1798;48.486;9.232;2022-11-15T12:11:20;6.67;;;4.60;;
3567;SDS011;1798;48.486;9.232;2022-11-15T12:13:50;8.10;;;5.07;;
3567;SDS011;1798;48.486;9.232;2022-11-15T12:16:22;10.30;;;5.83;;
3567;SDS011;1798;48.486;9.232;2022-11-15T12:18:51;11.93;;;4.60;;
3567;SDS011;1798;48.486;9.232;2022-11-15T12:21:21;9.40;;;4.67;;
3567;SDS011;1798;48.486;9.232;2022-11-15T12:23:54;8.10;;;4.73;;
3567;SDS011;1798;48.486;9.232;2022-11-15T12:26:25;15.97;;;5.57;;
3567;SDS011;1798;48.486;9.232;2022-11-15T12:28:54;20.47;;;11.43;;
3567;SDS011;1798;48.486;9.232;2022-11-15T12:31:24;41.17;;;13.83;;
3567;SDS011;1798;48.486;9.232;2022-11-15T12:33:55;7.27;;;5.30;;
3567;SDS011;1798;48.486;9.232;2022-11-15T12:36:32;34.63;;;14.20;;
3567;SDS011;1798;48.486;9.232;2022-11-15T12:39:02;8.07;;;5.13;;
3567;SDS011;1798;48.486;9.232;2022-11-15T12:41:30;35.70;;;10.27;;
3567;SDS011;1798;48.486;9.232;2022-11-15T12:43:57;22.40;;;10.20;;
3567;SDS011;1798;48.486;9.232;2022-11-15T12:49:43;15.47;;;5.53;;
3567;SDS011;1798;48.486;9.232;2022-11-15T12:52:13;10.33;;;5.20;;
3567;SDS011;1798;48.486;9.232;2022-11-15T12:57:49;9.20;;;5.47;;
3567;SDS011;1798;48.486;9.232;2022-11-15T13:00:36;11.20;;;5.63;;
3567;SDS011;1798;48.486;9.232;2022-11-15T13:05:56;8.83;;;4.90;;
3567;SDS011;1798;48.486;9.232;2022-11-15T13:08:38;30.77;;;9.87;;
3567;SDS011;1798;48.486;9.232;2022-11-15T13:17:12;14.07;;;5.87;;
3567;SDS011;1798;48.486;9.232;2022-11-15T13:19:46;9.80;;;5.47;;
3567;SDS011;1798;48.486;9.232;2022-11-15T13:22:14;16.33;;;5.57;;
3567;SDS011;1798;48.486;9.232;2022-11-15T13:24:59;12.70;;;6.70;;
3567;SDS011;1798;48.486;9.232;2022-11-15T13:27:27;12.90;;;6.30;;
3567;SDS011;1798;48.486;9.232;2022-11-15T13:29:54;24.07;;;5.90;;
3567;SDS011;1798;48.486;9.232;2022-11-15T13:32:21;9.60;;;6.27;;
3567;SDS011;1798;48.486;9.232;2022-11-15T13:34:49;14.53;;;6.33;;
3567;SDS011;1798;48.486;9.232;2022-11-15T13:37:27;10.27;;;5.97;;
3567;SDS011;1798;48.486;9.232;2022-11-15T13:39:57;11.73;;;6.30;;
3567;SDS011;1798;48.486;9.232;2022-11-15T13:42:42;9.67;;;5.50;;
3567;SDS011;1798;48.486;9.232;2022-11-15T13:45:13;14.27;;;6.90;;
3567;SDS011;1798;48.486;9.232;2022-11-15T13:47:41;10.33;;;6.13;;
3567;SDS011;1798;48.486;9.232;2022-11-15T13:50:10;54.93;;;14.57;;
3567;SDS011;1798;48.486;9.232;2022-11-15T13:52:37;38.30;;;12.30;;
3567;SDS011;1798;48.486;9.232;2022-11-15T13:55:09;9.50;;;6.23;;
3567;SDS011;1798;48.486;9.232;2022-11-15T13:57:40;10.23;;;6.23;;
3567;SDS011;1798;48.486;9.232;2022-11-15T14:00:23;20.30;;;7.90;;
3567;SDS011;1798;48.486;9.232;2022-11-15T14:02:52;10.17;;;5.90;;
3567;SDS011;1798;48.486;9.232;2022-11-15T14:05:20;18.47;;;7.10;;
3567;SDS011;1798;48.486;9.232;2022-11-15T14:07:52;79.17;;;22.97;;
3567;SDS011;1798;48.486;9.232;2022-11-15T14:12:56;52.40;;;18.93;;
3567;SDS011;1798;48.486;9.232;2022-11-15T14:15:27;38.93;;;15.10;;
3567;SDS011;1798;48.486;9.232;2022-11-15T14:17:55;16.00;;;7.73;;
3567;SDS011;1798;48.486;9.232;2022-11-15T14:20:26;67.00;;;14.50;;
3567;SDS011;1798;48.486;9.232;2022-11-15T14:22:56;43.60;;;13.77;;
3567;SDS011;1798;48.486;9.232;2022-11-15T14:25:24;14.03;;;7.80;;
3567;SDS011;1798;48.486;9.232;2022-11-15T14:30:39;21.27;;;9.90;;
3567;SDS011;1798;48.486;9.232;2022-11-15T14:33:16;15.10;;;7.70;;
3567;SDS011;1798;48.486;9.232;2022-11-15T14:35:44;19.17;;;7.27;;
3567;SDS011;1798;48.486;9.232;2022-11-15T14:38:11;16.30;;;6.83;;
3567;SDS011;1798;48.486;9.232;2022-11-15T14:40:38;27.40;;;7.70;;
3567;SDS011;1798;48.486;9.232;2022-11-15T14:43:07;12.90;;;6.13;;
3567;SDS011;1798;48.486;9.232;2022-11-15T14:45:36;13.97;;;7.77;;
3567;SDS011;1798;48.486;9.232;2022-11-15T14:48:03;13.40;;;7.53;;
3567;SDS011;1798;48.486;9.232;2022-11-15T14:50:30;18.77;;;6.53;;
3567;SDS011;1798;48.486;9.232;2022-11-15T14:52:58;11.90;;;7.40;;
3567;SDS011;1798;48.486;9.232;2022-11-15T14:55:26;12.20;;;6.60;;
3567;SDS011;1798;48.486;9.232;2022-11-15T14:57:53;11.30;;;7.03;;
3567;SDS011;1798;48.486;9.232;2022-11-15T15:00:20;15.70;;;6.43;;
3567;SDS011;1798;48.486;9.232;2022-11-15T15:02:50;13.13;;;6.90;;
3567;SDS011;1798;48.486;9.232;2022-11-15T15:05:19;19.27;;;8.70;;
3567;SDS011;1798;48.486;9.232;2022-11-15T15:07:48;17.30;;;8.87;;
3567;SDS011;1798;48.486;9.232;2022-11-15T15:10:15;12.80;;;7.53;;
3567;SDS011;1798;48.486;9.232;2022-11-15T15:12:42;16.27;;;7.20;;
3567;SDS011;1798;48.486;9.232;2022-11-15T15:15:12;10.73;;;5.80;;
3567;SDS011;1798;48.486;9.232;2022-11-15T15:17:39;18.23;;;7.80;;
3567;SDS011;1798;48.486;9.232;2022-11-15T15:20:08;11.17;;;6.37;;
3567;SDS011;1798;48.486;9.232;2022-11-15T15:22:36;27.23;;;7.70;;
3567;SDS011;1798;48.486;9.232;2022-11-15T15:25:07;61.77;;;22.07;;
3567;SDS011;1798;48.486;9.232;2022-11-15T15:27:42;169.00;;;45.30;;
3567;SDS011;1798;48.486;9.232;2022-11-15T15:30:10;56.83;;;19.83;;
3567;SDS011;1798;48.486;9.232;2022-11-15T15:32:37;39.50;;;13.47;;
3567;SDS011;1798;48.486;9.232;2022-11-15T15:35:04;19.30;;;10.23;;
3567;SDS011;1798;48.486;9.232;2022-11-15T15:37:33;18.53;;;7.90;;
3567;SDS011;1798;48.486;9.232;2022-11-15T15:40:00;11.00;;;6.50;;
3567;SDS011;1798;48.486;9.232;2022-11-15T15:42:27;17.57;;;6.00;;
3567;SDS011;1798;48.486;9.232;2022-11-15T15:44:54;20.30;;;5.63;;
3567;SDS011;1798;48.486;9.232;2022-11-15T15:47:21;12.53;;;5.70;;
3567;SDS011;1798;48.486;9.232;2022-11-15T15:49:50;15.30;;;5.80;;
3567;SDS011;1798;48.486;9.232;2022-11-15T15:52:17;14.70;;;6.13;;
3567;SDS011;1798;48.486;9.232;2022-11-15T15:54:46;12.30;;;5.40;;
3567;SDS011;1798;48.486;9.232;2022-11-15T15:57:14;14.93;;;6.70;;